Time;durP1;ratioP1;P1;durP2;ratioP2;P2;SDS_P1;SDS_P2;PMS_P1;PMS_P2;Temp;Humidity;BMP_temperature;BMP_pressure;BME280_temperature;BME280_humidity;BME280_pressure;Samples;Min_cycle;Max_cycle;Signal;HPM_P1;HPM_P2
2023/09/14 00:00:44;;;;;;;7.72;2.58;;;;;;;12.82;100.00;102181.69;5070268;28;20032;-74
2023/09/14 00:03:09;;;;;;;7.82;3.33;;;;;;;12.86;100.00;102201.72;5070133;28;20419;-74
2023/09/14 00:05:45;;;;;;;8.43;3.65;;;;;;;12.82;100.00;102195.91;5070082;28;20028;-74
2023/09/14 00:08:12;;;;;;;5.63;3.03;;;;;;;12.77;100.00;102189.44;5069822;28;20114;-74
2023/09/14 00:10:38;;;;;;;8.98;3.53;;;;;;;12.74;100.00;102187.94;5070043;28;20534;-74
2023/09/14 00:13:04;;;;;;;7.90;2.58;;;;;;;12.64;100.00;102176.63;5058883;28;20063;-74
2023/09/14 00:15:30;;;;;;;5.03;2.15;;;;;;;12.75;100.00;102188.75;5050925;28;20037;-74
2023/09/14 00:17:55;;;;;;;8.18;2.90;;;;;;;12.74;100.00;102187.94;5060591;28;20100;-73
2023/09/14 00:20:23;;;;;;;5.65;2.78;;;;;;;12.70;100.00;102190.13;5050874;28;20036;-74
2023/09/14 00:22:53;;;;;;;6.63;3.13;;;;;;;12.67;100.00;102193.16;5065382;28;20764;-74
2023/09/14 00:25:19;;;;;;;7.85;2.47;;;;;;;12.62;100.00;102195.53;5069631;28;20046;-74
2023/09/14 00:27:45;;;;;;;9.80;3.22;;;;;;;12.64;100.00;102201.53;5069264;28;20056;-74
2023/09/14 00:30:11;;;;;;;9.52;2.92;;;;;;;12.65;100.00;102194.34;5068066;28;20076;-74
2023/09/14 00:32:40;;;;;;;5.75;2.33;;;;;;;12.64;100.00;102193.50;5069632;28;20047;-74
2023/09/14 00:35:09;;;;;;;5.47;2.22;;;;;;;12.63;100.00;102186.50;5069702;28;20082;-74
2023/09/14 00:37:35;;;;;;;6.82;2.78;;;;;;;12.61;100.00;102185.00;5069562;28;20040;-74
2023/09/14 00:40:06;;;;;;;4.22;2.38;;;;;;;12.57;100.00;102179.16;5069371;28;20436;-74
2023/09/14 00:42:44;;;;;;;4.78;2.95;;;;;;;12.56;100.00;102176.69;5069574;28;20020;-74
2023/09/14 00:45:15;;;;;;;12.38;3.90;;;;;;;12.57;100.00;102181.84;5069517;28;20039;-74
2023/09/14 00:47:45;;;;;;;6.20;2.72;;;;;;;12.58;100.00;102183.53;5069563;28;20400;-74
2023/09/14 00:50:16;;;;;;;10.43;4.18;;;;;;;12.54;100.00;102179.53;5067953;28;20133;-74
2023/09/14 00:52:44;;;;;;;5.88;2.60;;;;;;;12.55;100.00;102191.06;5069392;28;20480;-74
2023/09/14 00:55:10;;;;;;;9.40;3.08;;;;;;;12.52;100.00;102189.56;5063342;28;20033;-74
2023/09/14 00:57:36;;;;;;;5.68;2.50;;;;;;;12.49;100.00;102182.72;5068980;28;20032;-74
2023/09/14 01:00:05;;;;;;;9.95;3.70;;;;;;;12.48;100.00;102190.94;5069058;28;20519;-74
2023/09/14 01:02:32;;;;;;;8.75;3.13;;;;;;;12.44;100.00;102193.16;5069120;28;20032;-74
2023/09/14 01:04:57;;;;;;;7.05;2.92;;;;;;;12.46;100.00;102190.28;5068950;28;20032;-74
2023/09/14 01:07:23;;;;;;;7.38;2.92;;;;;;;12.44;100.00;102194.97;5069077;28;20024;-74
2023/09/14 01:09:48;;;;;;;5.15;3.03;;;;;;;12.40;100.00;102191.00;5068997;28;20090;-74
2023/09/14 01:12:14;;;;;;;7.95;2.67;;;;;;;12.38;100.00;102185.81;5067660;28;20518;-74
2023/09/14 01:14:56;;;;;;;7.80;3.10;;;;;;;12.37;100.00;102189.50;5069017;28;20043;-74
2023/09/14 01:17:31;;;;;;;17.38;5.35;;;;;;;12.37;100.00;102188.69;5068967;28;20055;-74
2023/09/14 01:20:30;;;;;;;7.15;2.58;;;;;;;12.40;100.00;102182.97;5059552;28;20017;-74
2023/09/14 01:23:14;;;;;;;4.88;2.53;;;;;;;12.38;100.00;102191.16;5068839;28;20028;-74
2023/09/14 01:25:45;;;;;;;7.22;2.58;;;;;;;12.29;100.00;102186.88;5061754;28;21047;-74
2023/09/14 01:28:12;;;;;;;8.80;3.05;;;;;;;12.23;100.00;102187.56;5048303;28;20393;-74
2023/09/14 01:30:38;;;;;;;6.50;3.10;;;;;;;12.21;100.00;102198.44;5068808;28;20024;-74
2023/09/14 01:33:09;;;;;;;6.63;2.72;;;;;;;12.17;100.00;102182.91;5068934;28;20037;-74
2023/09/14 01:35:50;;;;;;;5.55;2.67;;;;;;;12.11;100.00;102189.78;5068806;28;20077;-74
2023/09/14 01:38:16;;;;;;;11.60;3.33;;;;;;;12.11;100.00;102187.13;5068732;28;20024;-74
2023/09/14 01:40:44;;;;;;;6.38;3.05;;;;;;;12.08;100.00;102187.47;5073354;28;20377;-74
2023/09/14 01:43:09;;;;;;;3.30;2.25;;;;;;;12.09;100.00;102193.66;5075497;28;20024;-74
2023/09/14 01:45:35;;;;;;;7.85;2.72;;;;;;;12.05;100.00;102195.81;5066520;28;20029;-74
2023/09/14 01:48:00;;;;;;;5.43;2.70;;;;;;;11.97;100.00;102194.03;5075381;28;20085;-74
2023/09/14 01:50:26;;;;;;;2.95;2.05;;;;;;;11.94;100.00;102198.88;5075042;28;20057;-74
2023/09/14 01:52:54;;;;;;;7.28;2.50;;;;;;;11.89;100.00;102193.22;5075209;28;20036;-73
2023/09/14 01:55:19;;;;;;;3.63;2.05;;;;;;;11.88;100.00;102191.56;5075114;28;20029;-73
2023/09/14 01:57:45;;;;;;;6.68;2.22;;;;;;;11.83;100.00;102192.03;5075009;28;20040;-74
2023/09/14 02:00:11;;;;;;;6.22;2.95;;;;;;;11.81;100.00;102191.34;5075215;28;20036;-74
2023/09/14 02:02:36;;;;;;;6.25;2.97;;;;;;;11.74;100.00;102188.56;5075026;28;20036;-73
2023/09/14 02:05:02;;;;;;;5.40;3.50;;;;;;;11.70;100.00;102179.19;5075510;28;20032;-73
2023/09/14 02:07:28;;;;;;;6.05;2.58;;;;;;;11.78;100.00;102192.53;5066003;28;20032;-73
2023/09/14 02:09:53;;;;;;;9.80;2.83;;;;;;;11.74;100.00;102188.56;5056126;28;20032;-74
2023/09/14 02:12:20;;;;;;;7.57;2.63;;;;;;;11.71;100.00;102193.38;5057210;28;20039;-73
2023/09/14 02:14:45;;;;;;;5.97;2.45;;;;;;;11.67;100.00;102192.91;5073803;28;20075;-73
2023/09/14 02:17:11;;;;;;;8.63;2.58;;;;;;;11.64;100.00;102187.91;5075237;28;20063;-74
2023/09/14 02:19:36;;;;;;;5.63;2.60;;;;;;;11.59;100.00;102180.41;5074717;28;20074;-73
2023/09/14 02:22:02;;;;;;;5.50;2.30;;;;;;;11.59;100.00;102182.25;5075016;28;20043;-73
2023/09/14 02:24:27;;;;;;;7.72;2.58;;;;;;;11.44;100.00;102162.56;5075012;28;20024;-73
2023/09/14 02:26:54;;;;;;;4.50;2.38;;;;;;;11.53;100.00;102175.75;5075058;28;20515;-73
2023/09/14 02:29:20;;;;;;;6.43;2.55;;;;;;;11.51;100.00;102179.59;5075075;28;20028;-73
2023/09/14 02:31:45;;;;;;;6.47;2.40;;;;;;;11.50;100.00;102177.91;5074858;28;20793;-73
2023/09/14 02:34:10;;;;;;;8.15;2.50;;;;;;;11.49;100.00;102173.56;5074846;28;20039;-73
2023/09/14 02:36:36;;;;;;;6.10;2.20;;;;;;;11.47;100.00;102172.91;5074907;28;20060;-73
2023/09/14 02:39:01;;;;;;;8.95;3.38;;;;;;;11.46;100.00;102173.91;5055552;28;20029;-74
2023/09/14 02:41:27;;;;;;;7.95;2.88;;;;;;;11.47;100.00;102181.75;5056355;28;20116;-73
2023/09/14 02:43:52;;;;;;;5.38;2.60;;;;;;;11.41;100.00;102180.59;5074845;28;20040;-73
2023/09/14 02:46:17;;;;;;;9.68;3.17;;;;;;;11.47;100.00;102175.56;5074896;28;20165;-74
2023/09/14 02:48:43;;;;;;;7.25;2.63;;;;;;;11.44;100.00;102168.72;5074747;28;20369;-74
2023/09/14 02:51:08;;;;;;;6.07;3.35;;;;;;;11.48;100.00;102177.25;5071487;28;20060;-74
2023/09/14 02:53:33;;;;;;;4.75;2.40;;;;;;;11.44;100.00;102171.41;5071446;28;20033;-73
2023/09/14 02:55:59;;;;;;;8.07;2.35;;;;;;;11.47;100.00;102175.56;5071599;28;20017;-74
2023/09/14 02:58:24;;;;;;;8.15;3.95;;;;;;;11.48;100.00;102167.41;5071410;28;20048;-73
2023/09/14 03:00:49;;;;;;;7.30;2.90;;;;;;;11.38;100.00;102156.91;5070126;28;20048;-74
2023/09/14 03:03:15;;;;;;;4.32;2.42;;;;;;;11.45;100.00;102169.56;5071402;28;20024;-73
2023/09/14 03:05:40;;;;;;;3.65;1.98;;;;;;;11.38;100.00;102162.25;5069954;28;20032;-73
2023/09/14 03:08:06;;;;;;;6.05;2.35;;;;;;;11.39;100.00;102169.25;5070312;28;20024;-73
2023/09/14 03:10:31;;;;;;;6.30;2.90;;;;;;;11.36;100.00;102166.91;5070667;28;20047;-74
2023/09/14 03:12:56;;;;;;;8.20;3.40;;;;;;;11.28;100.00;102158.91;5050859;28;20549;-73
2023/09/14 03:15:22;;;;;;;12.57;3.10;;;;;;;11.31;100.00;102163.91;5050788;28;20028;-74
2023/09/14 03:17:47;;;;;;;7.85;2.83;;;;;;;11.31;100.00;102163.91;5052055;28;20126;-74
2023/09/14 03:20:12;;;;;;;9.18;3.60;;;;;;;11.30;100.00;102169.44;5050758;28;20384;-74
2023/09/14 03:22:38;;;;;;;7.22;2.58;;;;;;;11.28;100.00;102168.75;5051928;28;20108;-73
2023/09/14 03:25:04;;;;;;;8.75;2.95;;;;;;;11.27;100.00;102167.94;5050473;28;20039;-73
2023/09/14 03:27:29;;;;;;;5.88;3.53;;;;;;;11.26;100.00;102166.25;5050560;28;20103;-73
2023/09/14 03:29:54;;;;;;;7.45;3.17;;;;;;;11.28;100.00;102163.44;5051908;28;20104;-73
2023/09/14 03:32:20;;;;;;;6.13;2.53;;;;;;;11.25;100.00;102169.94;5051690;28;20051;-74
2023/09/14 03:34:45;;;;;;;9.23;3.30;;;;;;;11.25;100.00;102177.94;5051741;28;20120;-73
2023/09/14 03:37:10;;;;;;;4.75;2.35;;;;;;;11.24;100.00;102180.78;5059087;28;20486;-73
2023/09/14 03:39:36;;;;;;;4.38;2.45;;;;;;;11.19;100.00;102170.63;5070644;28;20464;-74
2023/09/14 03:42:01;;;;;;;5.03;2.25;;;;;;;11.20;100.00;102185.63;5070642;28;20035;-73
2023/09/14 03:44:27;;;;;;;7.43;2.30;;;;;;;11.13;100.00;102172.13;5070754;28;20118;-73
2023/09/14 03:46:52;;;;;;;6.43;2.60;;;;;;;11.09;100.00;102181.47;5069405;28;20494;-73
2023/09/14 03:49:17;;;;;;;8.55;3.10;;;;;;;11.03;100.00;102179.47;5070491;28;20028;-73
2023/09/14 03:51:43;;;;;;;5.45;3.22;;;;;;;10.98;100.00;102171.13;5070267;28;20106;-73
2023/09/14 03:54:08;;;;;;;5.80;2.60;;;;;;;10.95;100.00;102168.75;5070394;28;20035;-73
2023/09/14 03:56:34;;;;;;;8.10;3.28;;;;;;;10.92;100.00;102169.94;5070479;28;20028;-73
2023/09/14 03:58:59;;;;;;;3.88;2.70;;;;;;;10.86;100.00;102162.59;5069011;28;20032;-73
2023/09/14 04:01:25;;;;;;;4.03;1.92;;;;;;;10.91;100.00;102168.28;5052303;28;20071;-73
2023/09/14 04:03:50;;;;;;;8.10;2.50;;;;;;;10.86;100.00;102159.09;5068849;28;20999;-73
2023/09/14 04:06:16;;;;;;;4.70;2.03;;;;;;;10.88;100.00;102165.94;5069010;28;20063;-74
2023/09/14 04:08:41;;;;;;;8.85;2.55;;;;;;;10.86;100.00;102159.09;5070338;28;20147;-73
2023/09/14 04:11:07;;;;;;;6.60;2.20;;;;;;;10.82;100.00;102171.09;5070046;28;20035;-73
2023/09/14 04:13:34;;;;;;;3.22;1.95;;;;;;;10.77;100.00;102168.94;5070113;28;20499;-74
2023/09/14 04:16:04;;;;;;;3.80;2.13;;;;;;;10.75;100.00;102174.44;5070040;28;20033;-74
2023/09/14 04:18:34;;;;;;;3.33;1.85;;;;;;;10.74;100.00;102171.91;5069668;28;20053;-73
2023/09/14 04:21:01;;;;;;;4.00;2.13;;;;;;;10.70;100.00;102174.09;5069922;28;20029;-73
2023/09/14 04:23:26;;;;;;;5.70;2.10;;;;;;;10.74;100.00;102174.59;5069749;28;20043;-73
2023/09/14 04:25:51;;;;;;;4.60;3.13;;;;;;;10.74;100.00;102167.44;5068460;28;20033;-73
2023/09/14 04:28:18;;;;;;;5.45;1.90;;;;;;;10.74;100.00;102169.25;5069719;28;20119;-73
2023/09/14 04:30:48;;;;;;;3.92;2.33;;;;;;;10.75;100.00;102178.94;5068553;28;20048;-73
2023/09/14 04:33:15;;;;;;;9.23;2.20;;;;;;;10.74;100.00;102175.44;5070143;28;20040;-74
2023/09/14 04:35:41;;;;;;;4.15;1.67;;;;;;;10.73;100.00;102181.78;5069669;28;20032;-74
2023/09/14 04:38:07;;;;;;;5.13;2.22;;;;;;;10.70;100.00;102176.75;5069650;28;20029;-73
2023/09/14 04:40:37;;;;;;;4.10;2.10;;;;;;;10.72;100.00;102171.28;5069650;28;20376;-73
2023/09/14 04:43:03;;;;;;;3.38;1.70;;;;;;;10.73;100.00;102181.78;5069572;28;20399;-74
2023/09/14 04:45:29;;;;;;;5.75;2.28;;;;;;;10.72;100.00;102174.78;5068138;28;20037;-74
2023/09/14 04:47:54;;;;;;;5.93;1.95;;;;;;;10.71;100.00;102177.59;5069476;28;21091;-73
2023/09/14 04:50:20;;;;;;;6.72;2.35;;;;;;;10.74;100.00;102183.47;5069236;28;20611;-74
2023/09/14 04:52:45;;;;;;;3.08;2.17;;;;;;;10.75;100.00;102177.09;5069346;28;20028;-73
2023/09/14 04:55:11;;;;;;;5.68;2.35;;;;;;;10.73;100.00;102179.09;5068201;28;20492;-73
2023/09/14 04:57:36;;;;;;;9.00;2.30;;;;;;;10.71;100.00;102174.94;5069229;28;20063;-73
2023/09/14 05:00:04;;;;;;;3.65;2.35;;;;;;;10.73;100.00;102181.78;5069219;28;20529;-73
2023/09/14 05:02:29;;;;;;;5.45;2.58;;;;;;;10.71;100.00;102193.59;5068939;28;20086;-73
2023/09/14 05:04:54;;;;;;;6.47;3.20;;;;;;;10.69;100.00;102184.94;5067965;28;20898;-74
2023/09/14 05:07:20;;;;;;;4.35;1.85;;;;;;;10.65;100.00;102188.94;5065362;28;20472;-73
2023/09/14 05:09:46;;;;;;;2.65;1.60;;;;;;;10.64;100.00;102176.59;5048557;28;20082;-73
2023/09/14 05:12:11;;;;;;;3.72;2.15;;;;;;;10.61;100.00;102191.09;5047684;28;20033;-73
2023/09/14 05:14:36;;;;;;;6.47;2.25;;;;;;;10.53;100.00;102173.25;5048454;28;20483;-73
2023/09/14 05:17:02;;;;;;;4.68;2.10;;;;;;;10.57;100.00;102183.59;5048948;28;20024;-74
2023/09/14 05:19:29;;;;;;;4.82;2.00;;;;;;;10.52;100.00;102181.41;5066795;28;20133;-74
2023/09/14 05:21:55;;;;;;;7.40;2.80;;;;;;;10.55;100.00;102186.41;5067171;28;20434;-73
2023/09/14 05:24:20;;;;;;;4.03;1.83;;;;;;;10.52;100.00;102184.06;5068565;28;20085;-73
2023/09/14 05:26:47;;;;;;;5.93;2.00;;;;;;;10.54;100.00;102190.09;5068889;28;20119;-73
2023/09/14 05:29:13;;;;;;;2.53;1.80;;;;;;;10.58;100.00;102196.75;5068622;28;20039;-73
2023/09/14 05:31:38;;;;;;;6.72;3.05;;;;;;;10.60;100.00;102197.41;5067872;28;20040;-73
2023/09/14 05:34:06;;;;;;;4.88;2.63;;;;;;;10.58;100.00;102196.75;5064930;28;20028;-73
2023/09/14 05:36:31;;;;;;;11.98;4.03;;;;;;;10.52;100.00;102190.22;5067242;28;20052;-74
2023/09/14 05:38:56;;;;;;;3.30;2.13;;;;;;;10.63;100.00;102209.59;5068696;28;20503;-73
2023/09/14 05:41:22;;;;;;;9.55;3.10;;;;;;;10.61;100.00;102204.44;5068453;28;20042;-73
2023/09/14 05:43:47;;;;;;;4.88;2.40;;;;;;;10.60;100.00;102212.59;5068556;28;20055;-74
2023/09/14 05:46:12;;;;;;;3.67;2.13;;;;;;;10.58;100.00;102207.41;5067288;28;20158;-73
2023/09/14 05:48:38;;;;;;;10.95;3.10;;;;;;;10.59;100.00;102213.63;5068699;28;20135;-73
2023/09/14 05:51:03;;;;;;;5.88;2.22;;;;;;;10.57;100.00;102213.75;5067663;28;20056;-73
2023/09/14 05:53:28;;;;;;;4.45;2.78;;;;;;;10.63;100.00;102210.44;5067159;28;20479;-73
2023/09/14 05:55:54;;;;;;;4.57;2.30;;;;;;;10.64;100.00;102204.13;5068307;28;20078;-73
2023/09/14 05:58:20;;;;;;;3.40;2.03;;;;;;;10.69;100.00;102208.97;5067045;28;20039;-73
2023/09/14 06:00:46;;;;;;;7.70;2.67;;;;;;;10.72;100.00;102205.97;5068749;28;20037;-74
2023/09/14 06:03:13;;;;;;;4.78;2.50;;;;;;;10.77;100.00;102211.66;5068342;28;20035;-74
2023/09/14 06:05:38;;;;;;;7.32;2.63;;;;;;;10.83;100.00;102210.97;5068161;28;20094;-73
2023/09/14 06:08:04;;;;;;;5.47;2.45;;;;;;;10.85;100.00;102211.66;5068424;28;20036;-74
2023/09/14 06:10:29;;;;;;;6.40;2.38;;;;;;;10.89;100.00;102206.81;5066997;28;20388;-73
2023/09/14 06:12:55;;;;;;;8.43;4.13;;;;;;;10.94;100.00;102210.66;5066857;28;20033;-73
2023/09/14 06:15:20;;;;;;;7.55;2.83;;;;;;;10.99;100.00;102209.34;5068250;28;20039;-73
2023/09/14 06:17:47;;;;;;;7.18;3.17;;;;;;;11.09;100.00;102202.81;5068232;28;20029;-74
2023/09/14 06:20:12;;;;;;;8.38;3.25;;;;;;;11.22;100.00;102218.34;5068125;28;20028;-74
2023/09/14 06:22:39;;;;;;;12.10;4.10;;;;;;;11.29;100.00;102205.16;5067633;28;20032;-73
2023/09/14 06:25:04;;;;;;;11.13;4.00;;;;;;;11.40;100.00;102210.16;5062094;28;20031;-73
2023/09/14 06:27:30;;;;;;;9.88;4.22;;;;;;;11.38;100.00;102201.47;5051407;28;20036;-73
2023/09/14 06:29:55;;;;;;;11.02;3.72;;;;;;;11.54;100.00;102214.81;5057969;28;20067;-71
2023/09/14 06:32:20;;;;;;;7.55;4.00;;;;;;;11.62;100.00;102219.31;5063165;28;20086;-71
2023/09/14 06:34:46;;;;;;;9.23;3.55;;;;;;;11.73;100.00;102205.56;5071943;28;20036;-71
2023/09/14 06:37:11;;;;;;;10.27;4.53;;;;;;;11.78;100.00;102210.41;5056957;28;20028;-71
2023/09/14 06:39:37;;;;;;;10.52;4.45;;;;;;;11.86;100.00;102210.44;5063372;28;20100;-72
2023/09/14 06:42:03;;;;;;;8.57;4.68;;;;;;;11.97;100.00;102217.25;5055552;28;20028;-71
2023/09/14 06:44:28;;;;;;;12.45;4.35;;;;;;;12.10;100.00;102222.88;5056779;28;20048;-71
2023/09/14 06:46:53;;;;;;;13.35;5.80;;;;;;;12.16;100.00;102221.38;5067170;28;20039;-71
2023/09/14 06:49:19;;;;;;;10.48;4.88;;;;;;;12.15;100.00;102214.34;5064206;28;20111;-72
2023/09/14 06:51:46;;;;;;;10.07;3.97;;;;;;;12.16;100.00;102194.63;5054028;28;20550;-72
2023/09/14 06:54:11;;;;;;;10.25;4.82;;;;;;;12.27;100.00;102211.09;5065939;28;20062;-72
2023/09/14 06:56:37;;;;;;;10.88;4.78;;;;;;;12.38;100.00;102220.59;5071116;28;20036;-72
2023/09/14 06:59:02;;;;;;;11.63;5.35;;;;;;;12.45;100.00;102221.56;5050420;28;20033;-72
2023/09/14 07:01:29;;;;;;;12.80;5.32;;;;;;;12.52;100.00;102231.56;5064262;28;20062;-71
2023/09/14 07:03:54;;;;;;;13.82;4.80;;;;;;;12.61;100.00;102223.31;5065429;28;20091;-72
2023/09/14 07:06:20;;;;;;;12.68;4.60;;;;;;;12.70;100.00;102227.59;5069651;28;20123;-72
2023/09/14 07:08:45;;;;;;;13.00;5.18;;;;;;;12.75;100.00;102221.72;5070740;28;20043;-72
2023/09/14 07:11:12;;;;;;;15.18;5.70;;;;;;;12.85;100.00;102233.03;5036850;28;20048;-72
2023/09/14 07:13:37;;;;;;;14.60;5.68;;;;;;;12.94;100.00;102237.34;5064313;28;20032;-73
2023/09/14 07:16:03;;;;;;;10.90;6.32;;;;;;;13.03;100.00;102231.91;5050479;28;20499;-72
2023/09/14 07:18:31;;;;;;;15.68;5.47;;;;;;;13.12;100.00;102236.19;5050461;28;20041;-72
2023/09/14 07:20:58;;;;;;;14.30;5.80;;;;;;;13.18;100.00;102230.13;5067161;28;20032;-72
2023/09/14 07:23:25;;;;;;;11.15;5.85;;;;;;;13.30;100.00;102225.19;5062541;28;20168;-72
2023/09/14 07:25:50;;;;;;;11.85;5.53;;;;;;;13.44;100.00;102232.44;5066852;28;20479;-69
2023/09/14 07:28:20;;;;;;;12.90;5.20;;;;;;;13.58;100.00;102230.81;5050874;28;20101;-72
2023/09/14 07:30:47;;;;;;;10.40;4.75;;;;;;;13.66;100.00;102227.22;5052076;28;20038;-74
2023/09/14 07:33:13;;;;;;;15.85;6.20;;;;;;;13.68;100.00;102226.00;5053091;28;20117;-73
2023/09/14 07:35:39;;;;;;;14.20;5.63;;;;;;;13.88;100.00;102231.63;5052236;28;20403;-73
2023/09/14 07:38:07;;;;;;;11.00;6.22;;;;;;;14.01;100.00;102237.19;5052244;28;20028;-72
2023/09/14 07:40:33;;;;;;;16.00;6.75;;;;;;;14.15;100.00;102232.84;5051722;28;20025;-71
2023/09/14 07:42:58;;;;;;;14.65;6.75;;;;;;;14.33;100.00;102236.97;5052310;28;20043;-73
2023/09/14 07:45:23;;;;;;;14.40;5.97;;;;;;;14.44;100.00;102241.91;5050559;28;20043;-73
2023/09/14 07:47:49;;;;;;;14.20;5.88;;;;;;;14.46;100.00;102243.38;5070001;28;20056;-74
2023/09/14 07:50:14;;;;;;;13.13;6.07;;;;;;;14.58;100.00;102250.97;5069295;28;20526;-74
2023/09/14 07:52:41;;;;;;;14.45;5.53;;;;;;;14.71;100.00;102250.28;5069923;28;20048;-74
2023/09/14 07:55:07;;;;;;;13.05;5.70;;;;;;;14.74;100.00;102248.03;5051418;28;20044;-74
2023/09/14 07:57:33;;;;;;;14.73;5.90;;;;;;;14.82;100.00;102249.78;5060859;28;20135;-74
2023/09/14 07:59:58;;;;;;;16.80;5.22;;;;;;;14.87;100.00;102253.56;5056641;28;20037;-74
2023/09/14 08:02:25;;;;;;;13.20;6.32;;;;;;;15.02;100.00;102253.50;5050723;28;20483;-74
2023/09/14 08:04:52;;;;;;;13.95;5.97;;;;;;;15.06;100.00;102249.44;5069078;28;20055;-75
2023/09/14 08:07:17;;;;;;;13.75;6.43;;;;;;;15.19;100.00;102253.25;5053797;28;20107;-74
2023/09/14 08:09:44;;;;;;;22.80;5.88;;;;;;;15.31;100.00;102263.28;5050274;28;20136;-74
2023/09/14 08:12:10;;;;;;;12.80;6.50;;;;;;;15.43;100.00;102258.22;5048432;28;20033;-74
2023/09/14 08:14:35;;;;;;;10.90;5.35;;;;;;;15.48;100.00;102249.56;5049174;28;20429;-74
2023/09/14 08:17:01;;;;;;;12.90;5.03;;;;;;;15.60;100.00;102247.19;5049601;28;20044;-74
2023/09/14 08:19:26;;;;;;;16.63;6.80;;;;;;;15.80;100.00;102250.03;5050588;28;20086;-74
2023/09/14 08:21:52;;;;;;;14.20;5.72;;;;;;;15.97;100.00;102249.50;5066432;28;20071;-74
2023/09/14 08:24:18;;;;;;;12.88;6.10;;;;;;;16.08;100.00;102250.00;5052056;28;20384;-75
2023/09/14 08:26:44;;;;;;;14.45;5.60;;;;;;;16.11;100.00;102247.75;5069694;28;20033;-74
2023/09/14 08:29:10;;;;;;;15.20;6.25;;;;;;;16.26;100.00;102246.78;5052001;28;20032;-74
2023/09/14 08:31:36;;;;;;;15.73;7.15;;;;;;;16.36;100.00;102256.13;5069346;28;20455;-74
2023/09/14 08:34:01;;;;;;;13.77;5.75;;;;;;;16.38;100.00;102250.56;5069363;28;20032;-74
2023/09/14 08:36:27;;;;;;;13.20;6.18;;;;;;;16.45;100.00;102246.00;5069496;28;20059;-74
2023/09/14 08:38:53;;;;;;;13.65;6.15;;;;;;;16.49;100.00;102249.97;5069343;28;20115;-74
2023/09/14 08:41:32;;;;;;;16.30;6.70;;;;;;;16.55;100.00;102257.25;5068031;28;20879;-74
2023/09/14 08:43:58;;;;;;;15.85;6.07;;;;;;;16.63;100.00;102267.81;5069453;28;20052;-75
2023/09/14 08:46:24;;;;;;;16.15;7.45;;;;;;;16.71;100.00;102266.81;5063792;28;20058;-74
2023/09/14 08:48:51;;;;;;;17.45;7.30;;;;;;;16.81;100.00;102267.28;5048347;28;20028;-74
2023/09/14 08:51:20;;;;;;;17.75;7.45;;;;;;;16.81;100.00;102259.22;5068470;28;20112;-74
2023/09/14 08:53:46;;;;;;;18.45;8.32;;;;;;;16.96;100.00;102263.63;5068977;28;20460;-74
2023/09/14 08:56:13;;;;;;;16.92;7.05;;;;;;;17.00;100.00;102263.00;5069127;28;20111;-74
2023/09/14 08:58:40;;;;;;;15.18;7.13;;;;;;;17.11;100.00;102263.41;5069256;28;20100;-74
2023/09/14 09:01:09;;;;;;;15.73;6.15;;;;;;;17.19;100.00;102257.84;5069032;28;20055;-74
2023/09/14 09:03:34;;;;;;;12.82;6.28;;;;;;;17.32;100.00;102263.25;5069198;28;20029;-74
2023/09/14 09:06:01;;;;;;;17.70;8.35;;;;;;;17.43;100.00;102259.09;5068977;28;20498;-74
2023/09/14 09:08:27;;;;;;;15.05;7.22;;;;;;;17.61;100.00;102253.91;5068869;28;20044;-74
2023/09/14 09:10:52;;;;;;;19.33;9.57;;;;;;;17.67;100.00;102263.03;5069142;28;20024;-74
2023/09/14 09:13:17;;;;;;;14.25;6.93;;;;;;;17.74;100.00;102269.25;5067561;28;20036;-75
2023/09/14 09:15:43;;;;;;;16.45;7.38;;;;;;;17.75;100.00;102262.78;5051285;28;20043;-74
2023/09/14 09:18:10;;;;;;;20.02;7.38;;;;;;;17.87;100.00;102254.94;5067626;28;20032;-74
2023/09/14 09:20:39;;;;;;;19.42;7.47;;;;;;;17.90;100.00;102247.22;5059624;28;20349;-74
2023/09/14 09:23:05;;;;;;;17.15;8.30;;;;;;;18.10;100.00;102255.28;5068682;28;20033;-74
2023/09/14 09:26:01;;;;;;;17.25;9.18;;;;;;;18.24;100.00;102255.25;5063342;28;20532;-74
2023/09/14 09:28:30;;;;;;;16.27;7.00;;;;;;;18.15;100.00;102246.53;5052385;28;20032;-74
2023/09/14 09:30:56;;;;;;;22.88;8.55;;;;;;;18.18;100.00;102254.19;5068820;28;20037;-74
2023/09/14 09:33:37;;;;;;;21.27;9.02;;;;;;;18.23;100.00;102248.16;5068538;28;20050;-74
2023/09/14 09:36:19;;;;;;;19.23;7.95;;;;;;;18.36;100.00;102251.63;5068798;28;20038;-74
2023/09/14 09:38:45;;;;;;;16.15;7.80;;;;;;;18.42;100.00;102249.97;5067254;28;20040;-74
2023/09/14 09:41:11;;;;;;;16.05;6.85;;;;;;;18.36;100.00;102246.22;5068707;28;20086;-74
2023/09/14 09:43:41;;;;;;;19.08;6.85;;;;;;;18.33;100.00;102257.47;5068617;28;20025;-74
2023/09/14 09:46:16;;;;;;;17.25;8.65;;;;;;;18.43;100.00;102251.63;5065607;28;20488;-74
2023/09/14 09:48:42;;;;;;;18.55;8.93;;;;;;;18.50;100.00;102251.59;5068401;28;20035;-74
2023/09/14 09:51:07;;;;;;;17.80;7.75;;;;;;;18.42;98.80;102249.13;5064569;28;20025;-74
2023/09/14 09:53:33;;;;;;;18.00;6.50;;;;;;;18.43;99.72;102240.81;5049449;28;20052;-74
2023/09/14 09:55:58;;;;;;;17.80;7.78;;;;;;;18.49;99.78;102239.13;5066993;28;20033;-74
2023/09/14 09:58:37;;;;;;;16.98;6.65;;;;;;;18.54;100.00;102234.72;5068404;28;20036;-74
2023/09/14 10:01:02;;;;;;;15.57;6.45;;;;;;;18.64;97.53;102233.44;5070038;28;20063;-74
2023/09/14 10:03:30;;;;;;;14.55;7.28;;;;;;;18.79;99.68;102234.00;5073055;28;20068;-74
2023/09/14 10:05:56;;;;;;;17.55;7.50;;;;;;;18.86;95.63;102233.97;5072536;28;20086;-74
2023/09/14 10:08:21;;;;;;;16.63;6.47;;;;;;;18.93;96.57;102230.16;5069975;28;20072;-74
2023/09/14 10:10:51;;;;;;;14.70;7.30;;;;;;;19.02;95.14;102236.13;5053115;28;20041;-74
2023/09/14 10:13:24;;;;;;;16.38;6.72;;;;;;;19.03;95.90;102237.78;5071750;28;20020;-74
2023/09/14 10:15:56;;;;;;;13.80;6.93;;;;;;;19.12;92.53;102228.34;5072284;28;20063;-74
2023/09/14 10:18:24;;;;;;;12.75;5.72;;;;;;;19.23;89.13;102230.38;5072185;28;20029;-74
2023/09/14 10:20:51;;;;;;;12.07;5.53;;;;;;;19.23;86.31;102230.38;5072152;28;20029;-74
2023/09/14 10:23:19;;;;;;;9.38;4.97;;;;;;;19.30;86.18;102227.59;5072166;28;20024;-74
2023/09/14 10:25:50;;;;;;;9.38;4.88;;;;;;;19.43;87.89;102227.47;5070084;28;20468;-74
2023/09/14 10:28:16;;;;;;;12.13;5.40;;;;;;;19.39;88.74;102228.16;5071995;28;20015;-74
2023/09/14 10:30:43;;;;;;;13.27;5.20;;;;;;;19.36;89.03;102226.72;5072062;28;20094;-74
2023/09/14 10:33:10;;;;;;;9.57;4.20;;;;;;;19.49;89.34;102229.31;5055604;28;20037;-74
2023/09/14 10:35:39;;;;;;;10.40;5.40;;;;;;;19.51;82.76;102226.34;5060492;28;20453;-74
2023/09/14 10:38:06;;;;;;;8.15;4.40;;;;;;;19.44;81.48;102229.16;5051224;28;20021;-74
2023/09/14 10:40:34;;;;;;;8.80;4.65;;;;;;;19.43;82.66;102219.34;5051331;28;20396;-74
2023/09/14 10:43:00;;;;;;;12.23;4.63;;;;;;;19.49;84.61;102223.03;5071840;28;20070;-74
2023/09/14 10:45:30;;;;;;;11.45;5.97;;;;;;;19.47;88.13;102209.75;5071757;28;20032;-74
2023/09/14 10:47:56;;;;;;;14.52;5.03;;;;;;;19.56;83.64;102218.41;5061616;28;20980;-74
2023/09/14 10:50:22;;;;;;;11.75;5.82;;;;;;;19.73;81.67;102202.47;5052460;28;20041;-74
2023/09/14 10:52:47;;;;;;;9.27;4.47;;;;;;;19.84;84.63;102206.28;5052125;28;20518;-74
2023/09/14 10:55:13;;;;;;;13.85;5.95;;;;;;;19.93;84.23;102207.63;5052238;28;20037;-74
2023/09/14 10:57:40;;;;;;;13.20;4.93;;;;;;;20.11;83.44;102194.06;5062974;28;20120;-74
2023/09/14 11:00:07;;;;;;;11.82;4.60;;;;;;;20.28;80.98;102197.00;5071243;28;20131;-74
2023/09/14 11:02:39;;;;;;;11.48;5.32;;;;;;;20.33;77.89;102197.16;5071220;28;20037;-74
2023/09/14 11:05:14;;;;;;;8.40;4.50;;;;;;;20.28;79.39;102202.44;5071237;28;20111;-74
2023/09/14 11:07:42;;;;;;;10.88;4.13;;;;;;;20.14;78.82;102193.63;5058121;28;20110;-75
2023/09/14 11:10:09;;;;;;;7.22;3.50;;;;;;;20.02;78.51;102198.16;5060273;28;20032;-74
2023/09/14 11:12:34;;;;;;;9.90;3.45;;;;;;;19.79;78.73;102198.84;5052878;28;20110;-74